createdAt,value
2022-09-01T00:01:21.965Z,0.75
2022-09-01T00:03:49.239Z,1.00
2022-09-01T00:06:16.715Z,0.73
2022-09-01T00:08:43.486Z,1.05
2022-09-01T00:11:10.132Z,0.90
2022-09-01T00:13:36.731Z,0.90
2022-09-01T00:16:03.720Z,0.93
2022-09-01T00:18:31.036Z,0.90
2022-09-01T00:20:58.443Z,0.88
2022-09-01T00:23:27.518Z,0.70
2022-09-01T00:25:54.532Z,0.70
2022-09-01T00:28:21.520Z,0.65
2022-09-01T00:30:54.177Z,0.70
2022-09-01T00:33:21.740Z,0.80
2022-09-01T00:35:48.470Z,0.80
2022-09-01T00:38:15.033Z,0.80
2022-09-01T00:40:41.852Z,1.10
2022-09-01T00:43:18.453Z,0.80
2022-09-01T00:45:45.231Z,0.80
2022-09-01T00:48:12.274Z,0.95
2022-09-01T00:50:40.316Z,0.90
2022-09-01T00:53:08.137Z,0.88
2022-09-01T00:55:37.529Z,1.00
2022-09-01T00:58:06.547Z,0.95
2022-09-01T01:00:50.810Z,0.68
2022-09-01T01:03:17.581Z,0.90
2022-09-01T01:05:51.527Z,0.93
2022-09-01T01:08:18.815Z,0.90
2022-09-01T01:10:45.854Z,0.90
2022-09-01T01:13:16.247Z,1.10
2022-09-01T01:15:44.494Z,1.20
2022-09-01T01:18:12.450Z,1.08
2022-09-01T01:20:40.213Z,0.93
2022-09-01T01:23:21.791Z,0.70
2022-09-01T01:25:50.351Z,0.90
2022-09-01T01:28:24.186Z,0.80
2022-09-01T01:30:55.752Z,0.80
2022-09-01T01:33:26.667Z,0.90
2022-09-01T01:35:54.330Z,0.90
2022-09-01T01:38:21.341Z,1.00
2022-09-01T01:40:50.993Z,0.88
2022-09-01T01:43:18.070Z,0.82
2022-09-01T01:45:44.734Z,0.90
2022-09-01T01:48:11.553Z,0.90
2022-09-01T01:50:39.472Z,1.20
2022-09-01T01:53:11.095Z,1.00
2022-09-01T01:55:40.709Z,1.00
2022-09-01T01:58:07.492Z,1.05
2022-09-01T02:00:34.389Z,1.00
2022-09-01T02:03:02.193Z,1.08
2022-09-01T02:05:32.623Z,1.10
2022-09-01T02:08:02.725Z,1.00
2022-09-01T02:10:33.356Z,0.98
2022-09-01T02:13:02.239Z,1.20
2022-09-01T02:15:29.228Z,1.10
2022-09-01T02:17:55.954Z,1.02
2022-09-01T02:20:22.579Z,1.20
2022-09-01T02:22:49.759Z,1.20
2022-09-01T02:25:16.342Z,1.00
2022-09-01T02:27:48.120Z,1.13
2022-09-01T02:30:14.772Z,1.30
2022-09-01T02:32:41.755Z,1.10
2022-09-01T02:35:09.779Z,1.17
2022-09-01T02:37:38.586Z,1.17
2022-09-01T02:40:08.355Z,1.10
2022-09-01T02:42:37.498Z,1.20
2022-09-01T02:45:05.453Z,1.20
2022-09-01T02:47:32.093Z,1.55
2022-09-01T02:49:58.649Z,1.10
2022-09-01T02:52:25.600Z,1.10
2022-09-01T02:54:52.301Z,1.30
2022-09-01T02:57:18.963Z,1.17
2022-09-01T02:59:45.579Z,1.20
2022-09-01T03:02:12.325Z,1.10
2022-09-01T03:04:38.964Z,1.20
2022-09-01T03:07:07.202Z,1.38
2022-09-01T03:09:33.802Z,1.30
2022-09-01T03:12:01.145Z,1.13
2022-09-01T03:14:27.878Z,1.23
2022-09-01T03:16:54.663Z,1.40
2022-09-01T03:19:21.327Z,1.10
2022-09-01T03:21:48.099Z,1.45
2022-09-01T03:24:18.737Z,1.13
2022-09-01T03:26:49.775Z,1.33
2022-09-01T03:29:18.642Z,1.05
2022-09-01T03:31:45.577Z,1.13
2022-09-01T03:34:12.523Z,1.10
2022-09-01T03:36:45.204Z,1.10
2022-09-01T03:39:16.537Z,1.02
2022-09-01T03:41:43.814Z,0.95
2022-09-01T03:44:11.869Z,1.00
2022-09-01T03:46:38.538Z,1.00
2022-09-01T03:49:05.982Z,1.05
2022-09-01T03:51:33.197Z,1.13
2022-09-01T03:54:01.242Z,1.00
2022-09-01T03:56:29.367Z,1.15
2022-09-01T03:58:58.402Z,1.20
2022-09-01T04:01:27.000Z,1.10
2022-09-01T04:03:54.432Z,1.10
2022-09-01T04:06:24.932Z,1.20
2022-09-01T04:08:52.972Z,1.20
2022-09-01T04:11:21.260Z,1.30
2022-09-01T04:13:49.117Z,1.15
2022-09-01T04:16:20.864Z,1.20
2022-09-01T04:18:48.082Z,1.20
2022-09-01T04:21:14.690Z,1.10
2022-09-01T04:23:41.340Z,1.17
2022-09-01T04:26:12.571Z,1.20
2022-09-01T04:28:42.388Z,1.17
2022-09-01T04:31:11.427Z,1.30
2022-09-01T04:33:38.864Z,1.50
2022-09-01T04:36:16.456Z,1.27
2022-09-01T04:38:43.168Z,1.25
2022-09-01T04:41:09.891Z,1.40
2022-09-01T04:43:36.623Z,1.60
2022-09-01T04:46:04.373Z,1.40
2022-09-01T04:48:31.195Z,1.10
2022-09-01T04:50:58.108Z,1.30
2022-09-01T04:53:27.643Z,1.88
2022-09-01T04:55:55.534Z,1.50
2022-09-01T04:58:24.393Z,1.60
2022-09-01T05:00:51.230Z,1.63
2022-09-01T05:03:19.223Z,1.67
2022-09-01T05:05:53.791Z,1.30
2022-09-01T05:08:23.364Z,1.50
2022-09-01T05:10:54.005Z,1.40
2022-09-01T05:13:31.645Z,1.50
2022-09-01T05:16:05.216Z,1.30
2022-09-01T05:18:32.868Z,1.48
2022-09-01T05:21:06.168Z,1.55
2022-09-01T05:23:32.814Z,1.50
2022-09-01T05:25:59.874Z,1.67
2022-09-01T05:28:26.753Z,1.65
2022-09-01T05:30:53.327Z,1.83
2022-09-01T05:33:21.954Z,1.58
2022-09-01T05:35:57.642Z,1.80
2022-09-01T05:38:24.811Z,1.70
2022-09-01T05:40:59.891Z,1.50
2022-09-01T05:43:26.750Z,1.60
2022-09-01T05:46:05.972Z,1.50
2022-09-01T05:48:33.443Z,1.90
2022-09-01T05:51:00.081Z,1.75
2022-09-01T05:53:27.777Z,1.52
2022-09-01T05:55:54.689Z,1.60
2022-09-01T05:58:21.734Z,1.58
2022-09-01T06:00:48.537Z,1.58
2022-09-01T06:03:16.479Z,1.50
2022-09-01T06:05:45.418Z,1.50
2022-09-01T06:08:12.319Z,1.40
2022-09-01T06:10:40.189Z,1.40
2022-09-01T06:13:08.325Z,1.45
2022-09-01T06:15:38.284Z,1.35
2022-09-01T06:18:07.222Z,1.30
2022-09-01T06:20:40.189Z,1.40
2022-09-01T06:23:07.289Z,1.30
2022-09-01T06:25:37.052Z,1.40
2022-09-01T06:28:04.372Z,1.30
2022-09-01T06:30:31.896Z,1.48
2022-09-01T06:33:03.803Z,1.35
2022-09-01T06:35:31.741Z,1.17
2022-09-01T06:37:59.606Z,1.27
2022-09-01T06:40:36.183Z,1.02
2022-09-01T06:43:03.219Z,1.05
2022-09-01T06:45:30.003Z,1.13
2022-09-01T06:48:00.065Z,1.20
2022-09-01T06:56:05.060Z,1.10
2022-09-01T06:58:32.420Z,1.23
2022-09-01T07:00:59.270Z,1.30
2022-09-01T07:03:26.672Z,1.10
2022-09-01T07:06:59.095Z,1.30
2022-09-01T07:09:20.188Z,0.95
2022-09-01T07:12:31.954Z,1.35
2022-09-01T07:17:50.905Z,1.17
2022-09-01T07:20:23.573Z,1.40
2022-09-01T07:23:07.396Z,1.38
2022-09-01T07:28:37.423Z,1.40
2022-09-01T07:33:54.563Z,1.45
2022-09-01T07:36:29.015Z,1.40
2022-09-01T07:47:57.163Z,1.20
2022-09-01T07:50:39.816Z,1.50
2022-09-01T07:53:09.572Z,1.38
2022-09-01T07:55:39.984Z,1.55
2022-09-01T07:58:06.927Z,1.50
2022-09-01T08:00:33.943Z,1.55
2022-09-01T08:03:05.655Z,1.60
2022-09-01T08:05:34.017Z,1.40
2022-09-01T08:08:01.395Z,1.50
2022-09-01T08:10:32.356Z,1.40
2022-09-01T08:12:59.390Z,1.38
2022-09-01T08:16:06.967Z,1.30
2022-09-01T08:18:18.492Z,1.13
2022-09-01T08:20:46.070Z,1.30
2022-09-01T08:23:30.962Z,1.30
2022-09-01T08:25:58.446Z,1.35
2022-09-01T08:28:26.831Z,1.30
2022-09-01T08:30:54.899Z,1.40
2022-09-01T08:33:23.423Z,1.50
2022-09-01T08:35:50.224Z,1.20
2022-09-01T08:38:18.796Z,0.90
2022-09-01T08:40:56.207Z,1.17
2022-09-01T08:43:34.128Z,1.35
2022-09-01T08:46:15.723Z,1.05
2022-09-01T08:52:30.820Z,1.20
2022-09-01T08:55:22.033Z,1.35
2022-09-01T08:57:49.016Z,1.20
2022-09-01T09:00:28.417Z,1.25
2022-09-01T09:03:18.487Z,1.17
2022-09-01T09:06:03.492Z,1.20
2022-09-01T09:08:49.020Z,1.27
2022-09-01T09:11:24.792Z,1.30
2022-09-01T09:14:28.736Z,1.17
2022-09-01T09:16:57.232Z,1.10
2022-09-01T09:19:29.730Z,1.30
2022-09-01T09:21:59.257Z,1.30
2022-09-01T09:24:29.190Z,1.33
2022-09-01T09:27:06.025Z,1.50
2022-09-01T09:29:33.702Z,1.38
2022-09-01T09:32:39.529Z,1.20
2022-09-01T09:34:56.327Z,1.30
2022-09-01T09:37:23.249Z,1.20
2022-09-01T09:40:10.061Z,1.15
2022-09-01T09:42:43.466Z,1.40
2022-09-01T09:45:24.032Z,1.30
2022-09-01T09:47:52.081Z,1.15
2022-09-01T09:50:29.446Z,1.17
2022-09-01T09:53:17.621Z,1.17
2022-09-01T09:56:11.514Z,1.20
2022-09-01T09:58:40.997Z,1.30
2022-09-01T10:01:07.604Z,1.13
2022-09-01T10:03:43.948Z,1.35
2022-09-01T10:06:33.857Z,0.95
2022-09-01T10:09:14.474Z,1.10
2022-09-01T10:11:44.022Z,1.10
2022-09-01T10:14:52.132Z,1.30
2022-09-01T10:17:31.599Z,1.00
2022-09-01T10:20:04.472Z,1.40
2022-09-01T10:22:32.861Z,0.80
2022-09-01T10:25:00.965Z,1.20
2022-09-01T10:27:33.464Z,1.25
2022-09-01T10:30:19.129Z,1.30
2022-09-01T10:33:06.853Z,1.48
2022-09-01T10:35:43.796Z,1.13
2022-09-01T10:38:20.727Z,1.00
2022-09-01T10:40:52.854Z,1.20
2022-09-01T10:43:44.328Z,1.10
2022-09-01T10:46:41.859Z,1.20
2022-09-01T10:49:25.233Z,1.17
2022-09-01T10:51:57.005Z,1.30
2022-09-01T10:54:40.326Z,1.20
2022-09-01T10:57:52.578Z,1.08
2022-09-01T11:00:35.118Z,1.15
2022-09-01T11:06:11.355Z,1.00
2022-09-01T11:08:58.253Z,1.10
2022-09-01T11:11:38.946Z,1.20
2022-09-01T11:14:20.869Z,1.10
2022-09-01T11:17:24.061Z,1.00
2022-09-01T11:19:55.713Z,0.98
2022-09-01T11:22:32.354Z,1.30
2022-09-01T11:25:38.734Z,0.93
2022-09-01T11:28:10.951Z,1.30
2022-09-01T11:30:54.404Z,1.00
2022-09-01T11:33:46.482Z,1.00
2022-09-01T11:36:26.140Z,1.00
2022-09-01T11:38:57.312Z,1.00
2022-09-01T11:41:34.302Z,0.88
2022-09-01T11:44:03.481Z,1.00
2022-09-01T11:46:35.512Z,1.08
2022-09-01T11:49:08.977Z,1.08
2022-09-01T11:51:47.593Z,1.08
2022-09-01T11:54:15.943Z,1.00
2022-09-01T11:56:42.567Z,1.10
2022-09-01T11:59:09.190Z,1.08
2022-09-01T12:01:38.401Z,1.20
2022-09-01T12:04:20.206Z,1.10
2022-09-01T12:06:57.520Z,1.00
2022-09-01T12:09:34.109Z,1.27
2022-09-01T12:12:00.999Z,1.05
2022-09-01T12:14:35.229Z,1.00
2022-09-01T12:17:20.480Z,1.10
2022-09-01T12:19:47.150Z,1.00
2022-09-01T12:22:19.283Z,1.10
2022-09-01T12:24:49.135Z,1.20
2022-09-01T12:27:15.798Z,1.00
2022-09-01T12:29:43.647Z,1.00
2022-09-01T12:32:11.741Z,0.90
2022-09-01T12:35:05.600Z,1.00
2022-09-01T12:37:36.234Z,1.08
2022-09-01T12:40:02.968Z,1.20
2022-09-01T12:42:40.960Z,0.93
2022-09-01T12:45:10.187Z,0.85
2022-09-01T12:47:36.752Z,1.00
2022-09-01T12:50:08.652Z,1.10
2022-09-01T12:52:44.929Z,1.25
2022-09-01T12:58:10.638Z,1.27
2022-09-01T13:00:55.000Z,1.10
2022-09-01T13:03:22.296Z,1.00
2022-09-01T13:06:03.986Z,1.13
2022-09-01T13:08:36.034Z,1.10
2022-09-01T13:11:11.380Z,1.20
2022-09-01T13:13:38.381Z,0.90
2022-09-01T13:16:06.020Z,0.98
2022-09-01T13:18:32.976Z,0.98
2022-09-01T13:21:00.694Z,1.00
2022-09-01T13:23:27.389Z,1.17
2022-09-01T13:25:54.028Z,1.08
2022-09-01T13:28:21.122Z,1.10
2022-09-01T13:31:28.699Z,1.05
2022-09-01T13:36:45.417Z,1.00
2022-09-01T13:39:15.459Z,0.80
2022-09-01T13:41:42.379Z,1.08
2022-09-01T13:44:09.381Z,1.13
2022-09-01T13:46:59.105Z,0.90
2022-09-01T13:52:09.513Z,1.08
2022-09-01T13:54:36.154Z,1.25
2022-09-01T13:57:03.023Z,0.80
2022-09-01T13:59:29.821Z,0.98
2022-09-01T14:01:56.734Z,1.02
2022-09-01T14:04:23.444Z,1.00
2022-09-01T14:06:50.118Z,0.90
2022-09-01T14:09:17.764Z,1.00
2022-09-01T14:11:44.816Z,0.80
2022-09-01T14:14:11.816Z,0.85
2022-09-01T14:16:38.574Z,0.93
2022-09-01T14:19:05.817Z,0.77
2022-09-01T14:21:32.685Z,1.05
2022-09-01T14:23:59.520Z,1.05
2022-09-01T14:26:28.040Z,1.00
2022-09-01T14:28:54.806Z,1.27
2022-09-01T14:31:22.093Z,0.90
2022-09-01T14:33:49.051Z,0.88
2022-09-01T14:36:25.184Z,1.00
2022-09-01T14:38:54.676Z,1.00
2022-09-01T14:41:23.785Z,1.00
2022-09-01T14:43:55.994Z,0.98
2022-09-01T14:46:24.218Z,1.15
2022-09-01T14:48:50.836Z,0.90
2022-09-01T14:54:16.373Z,0.73
2022-09-01T14:57:27.309Z,0.90
2022-09-01T14:59:30.002Z,1.08
2022-09-01T15:01:56.930Z,1.00
2022-09-01T15:04:23.674Z,0.90
2022-09-01T15:06:50.751Z,0.88
2022-09-01T15:09:19.215Z,1.02
2022-09-01T15:11:46.947Z,0.98
2022-09-01T15:14:13.942Z,0.90
2022-09-01T15:16:41.309Z,0.77
2022-09-01T15:19:10.080Z,0.90
2022-09-01T15:21:38.276Z,0.80
2022-09-01T15:24:06.718Z,0.70
2022-09-01T15:26:33.628Z,0.90
2022-09-01T15:29:00.835Z,0.90
2022-09-01T15:31:32.854Z,0.88
2022-09-01T15:34:02.191Z,1.00
2022-09-01T15:36:31.839Z,0.70
2022-09-01T15:38:58.979Z,0.90
2022-09-01T15:41:28.194Z,0.82
2022-09-01T15:43:56.183Z,0.85
2022-09-01T15:46:23.580Z,0.82
2022-09-01T15:48:50.271Z,0.80
2022-09-01T15:51:22.906Z,0.98
2022-09-01T15:53:51.240Z,0.73
2022-09-01T15:56:18.807Z,0.80
2022-09-01T15:59:01.087Z,0.73
2022-09-01T16:01:30.931Z,0.70
2022-09-01T16:03:58.082Z,0.68
2022-09-01T16:06:25.323Z,0.60
2022-09-01T16:08:51.919Z,0.85
2022-09-01T16:11:18.603Z,0.80
2022-09-01T16:13:45.218Z,0.63
2022-09-01T16:16:18.932Z,0.60
2022-09-01T16:19:15.172Z,0.50
2022-09-01T16:22:05.026Z,0.77
2022-09-01T16:24:38.795Z,0.50
2022-09-01T16:27:08.022Z,0.60
2022-09-01T16:29:48.409Z,0.70
2022-09-01T16:32:15.977Z,0.80
2022-09-01T16:34:43.718Z,0.73
2022-09-01T16:37:41.313Z,0.75
2022-09-01T16:40:30.175Z,0.70
2022-09-01T16:43:34.709Z,0.93
2022-09-01T16:46:18.176Z,0.80
2022-09-01T16:49:46.669Z,0.80
2022-09-01T16:52:20.616Z,0.80
2022-09-01T16:55:16.430Z,0.80
2022-09-01T16:57:56.099Z,0.60
2022-09-01T17:00:37.946Z,1.23
2022-09-01T17:03:17.263Z,0.80
2022-09-01T17:05:55.848Z,0.80
2022-09-01T17:08:56.482Z,0.63
2022-09-01T17:11:33.443Z,0.52
2022-09-01T17:14:01.626Z,0.50
2022-09-01T17:16:36.029Z,0.80
2022-09-01T17:19:09.593Z,0.85
2022-09-01T17:22:05.082Z,0.90
2022-09-01T17:24:42.928Z,0.70
2022-09-01T17:27:18.726Z,0.50
2022-09-01T17:29:51.068Z,0.63
2022-09-01T17:32:48.180Z,0.50
2022-09-01T17:35:33.354Z,0.60
2022-09-01T17:38:15.391Z,0.60
2022-09-01T17:41:10.565Z,0.70
2022-09-01T17:43:46.583Z,0.77
2022-09-01T17:46:30.022Z,0.73
2022-09-01T17:49:09.481Z,0.60
2022-09-01T17:52:03.580Z,0.70
2022-09-01T17:54:36.103Z,0.55
2022-09-01T17:57:32.190Z,0.75
2022-09-01T18:00:08.024Z,1.00
2022-09-01T18:02:52.245Z,1.25
2022-09-01T18:05:24.774Z,1.05
2022-09-01T18:08:16.504Z,0.88
2022-09-01T18:11:05.977Z,0.85
2022-09-01T18:13:52.959Z,0.75
2022-09-01T18:16:25.452Z,0.73
2022-09-01T18:18:53.094Z,0.75
2022-09-01T18:21:32.941Z,0.63
2022-09-01T18:24:28.676Z,1.20
2022-09-01T18:26:55.336Z,1.40
2022-09-01T18:29:22.174Z,0.70
2022-09-01T18:31:55.290Z,0.90
2022-09-01T18:34:38.366Z,0.60
2022-09-01T18:37:20.122Z,0.70
2022-09-01T18:39:46.673Z,0.73
2022-09-01T18:42:37.408Z,0.70
2022-09-01T18:45:22.801Z,0.70
2022-09-01T18:48:07.170Z,0.70
2022-09-01T18:50:46.161Z,0.60
2022-09-01T18:53:15.719Z,0.80
2022-09-01T18:55:50.855Z,0.70
2022-09-01T18:58:41.673Z,0.70
2022-09-01T19:01:12.851Z,0.60
2022-09-01T19:03:48.609Z,0.65
2022-09-01T19:06:34.686Z,0.80
2022-09-01T19:09:01.313Z,0.60
2022-09-01T19:11:47.654Z,0.40
2022-09-01T19:14:29.337Z,0.60
2022-09-01T19:17:04.662Z,0.60
2022-09-01T19:19:39.558Z,0.50
2022-09-01T19:22:06.608Z,0.55
2022-09-01T19:24:43.504Z,0.60
2022-09-01T19:27:19.737Z,0.55
2022-09-01T19:29:50.959Z,0.40
2022-09-01T19:32:20.662Z,0.60
2022-09-01T19:34:55.584Z,0.63
2022-09-01T19:37:23.406Z,0.63
2022-09-01T19:39:53.962Z,0.45
2022-09-01T19:43:03.021Z,0.50
2022-09-01T19:45:55.067Z,0.52
2022-09-01T19:48:35.178Z,0.65
2022-09-01T19:51:24.166Z,0.70
2022-09-01T19:54:20.089Z,0.60
2022-09-01T19:56:54.645Z,0.50
2022-09-01T19:59:40.699Z,0.68
2022-09-01T20:02:24.605Z,0.70
2022-09-01T20:05:07.084Z,0.70
2022-09-01T20:08:16.816Z,0.75
2022-09-01T20:11:03.686Z,0.70
2022-09-01T20:14:07.630Z,0.50
2022-09-01T20:16:38.239Z,0.68
2022-09-01T20:19:11.830Z,0.70
2022-09-01T20:21:44.725Z,0.60
2022-09-01T20:24:36.881Z,0.60
2022-09-01T20:27:38.616Z,0.80
2022-09-01T20:30:12.569Z,0.65
2022-09-01T20:33:24.231Z,0.63
2022-09-01T20:36:18.992Z,0.60
2022-09-01T20:39:02.932Z,0.68
2022-09-01T20:41:48.143Z,0.60
2022-09-01T20:44:35.590Z,0.75
2022-09-01T20:47:05.033Z,0.70
2022-09-01T20:49:33.632Z,0.70
2022-09-01T20:52:05.492Z,0.75
2022-09-01T20:54:41.300Z,0.60
2022-09-01T20:57:30.058Z,0.70
2022-09-01T21:00:02.979Z,0.63
2022-09-01T21:02:44.791Z,0.57
2022-09-01T21:05:26.651Z,0.60
2022-09-01T21:08:17.722Z,0.85
2022-09-01T21:10:47.392Z,0.70
2022-09-01T21:13:24.640Z,0.88
2022-09-01T21:16:08.821Z,0.57
2022-09-01T21:19:10.498Z,0.60
2022-09-01T21:21:55.983Z,0.80
2022-09-01T21:24:22.734Z,0.70
2022-09-01T21:26:49.820Z,0.90
2022-09-01T21:29:19.828Z,0.80
2022-09-01T21:31:47.671Z,0.68
2022-09-01T21:34:16.963Z,0.80
2022-09-01T21:36:43.762Z,0.68
2022-09-01T21:39:10.502Z,0.70
2022-09-01T21:41:39.137Z,0.90
2022-09-01T21:44:06.407Z,0.80
2022-09-01T21:46:33.246Z,0.68
2022-09-01T21:49:01.288Z,0.70
2022-09-01T21:51:28.774Z,0.55
2022-09-01T21:53:55.536Z,0.82
2022-09-01T21:56:25.752Z,0.93
2022-09-01T21:58:53.720Z,0.70
2022-09-01T22:02:07.154Z,0.77
2022-09-01T22:04:38.387Z,0.70
2022-09-01T22:07:06.500Z,0.70
2022-09-01T22:09:34.260Z,0.70
2022-09-01T22:12:01.176Z,0.55
2022-09-01T22:14:27.854Z,0.90
2022-09-01T22:17:20.005Z,1.00
2022-09-01T22:19:46.884Z,0.57
2022-09-01T22:22:13.463Z,0.60
2022-09-01T22:24:40.053Z,0.60
2022-09-01T22:27:06.625Z,0.73
2022-09-01T22:29:33.246Z,0.77
2022-09-01T22:31:59.759Z,0.55
2022-09-01T22:34:26.522Z,0.80
2022-09-01T22:36:53.072Z,0.70
2022-09-01T22:39:19.966Z,0.68
2022-09-01T22:41:52.600Z,0.68
2022-09-01T22:44:19.111Z,0.60
2022-09-01T22:46:45.951Z,0.60
2022-09-01T22:49:12.628Z,0.70
2022-09-01T22:51:42.466Z,0.63
2022-09-01T22:54:10.111Z,0.80
2022-09-01T22:56:39.418Z,0.80
2022-09-01T22:59:10.055Z,0.82
2022-09-01T23:01:43.938Z,0.77
2022-09-01T23:04:12.717Z,0.90
2022-09-01T23:06:43.199Z,0.80
2022-09-01T23:09:10.317Z,0.90
2022-09-01T23:11:37.148Z,1.00
2022-09-01T23:14:04.765Z,0.80
2022-09-01T23:16:31.723Z,0.88
2022-09-01T23:18:58.856Z,1.02
2022-09-01T23:21:33.140Z,1.00
2022-09-01T23:24:00.321Z,0.90
2022-09-01T23:26:28.464Z,1.05
2022-09-01T23:28:55.941Z,0.90
2022-09-01T23:31:27.222Z,1.00
2022-09-01T23:33:54.438Z,0.90
2022-09-01T23:36:25.253Z,1.00
2022-09-01T23:38:52.381Z,0.98
2022-09-01T23:41:30.779Z,1.00
2022-09-01T23:43:59.448Z,1.05
2022-09-01T23:46:28.254Z,1.00
2022-09-01T23:48:55.849Z,1.00
2022-09-01T23:51:24.020Z,1.00
2022-09-01T23:53:51.078Z,1.20
2022-09-01T23:56:24.196Z,1.23
2022-09-01T23:58:51.337Z,1.00
